sensor_id;sensor_type;location;lat;lon;timestamp;P1;durP1;ratioP1;P2;durP2;ratioP2
21162;SDS011;10739;52.198;20.908;2024-02-21T00:01:07;16.60;;;6.45;;
21162;SDS011;10739;52.198;20.908;2024-02-21T00:03:33;17.45;;;6.38;;
21162;SDS011;10739;52.198;20.908;2024-02-21T00:05:59;19.08;;;6.35;;
21162;SDS011;10739;52.198;20.908;2024-02-21T00:08:25;22.98;;;7.18;;
21162;SDS011;10739;52.198;20.908;2024-02-21T00:10:51;19.88;;;7.13;;
21162;SDS011;10739;52.198;20.908;2024-02-21T00:13:17;20.40;;;7.55;;
21162;SDS011;10739;52.198;20.908;2024-02-21T00:15:44;20.33;;;6.90;;
21162;SDS011;10739;52.198;20.908;2024-02-21T00:18:10;23.08;;;7.30;;
21162;SDS011;10739;52.198;20.908;2024-02-21T00:20:36;22.42;;;6.80;;
21162;SDS011;10739;52.198;20.908;2024-02-21T00:23:02;25.52;;;7.35;;
21162;SDS011;10739;52.198;20.908;2024-02-21T00:25:28;21.02;;;7.05;;
21162;SDS011;10739;52.198;20.908;2024-02-21T00:27:54;25.80;;;7.78;;
21162;SDS011;10739;52.198;20.908;2024-02-21T00:30:20;16.90;;;6.47;;
21162;SDS011;10739;52.198;20.908;2024-02-21T00:32:47;23.13;;;6.80;;
21162;SDS011;10739;52.198;20.908;2024-02-21T00:35:13;25.08;;;7.57;;
21162;SDS011;10739;52.198;20.908;2024-02-21T00:37:40;18.15;;;7.20;;
21162;SDS011;10739;52.198;20.908;2024-02-21T00:40:06;21.27;;;7.13;;
21162;SDS011;10739;52.198;20.908;2024-02-21T00:42:33;20.35;;;6.40;;
21162;SDS011;10739;52.198;20.908;2024-02-21T00:44:59;20.67;;;7.90;;
21162;SDS011;10739;52.198;20.908;2024-02-21T00:47:25;25.30;;;7.50;;
21162;SDS011;10739;52.198;20.908;2024-02-21T00:49:52;21.90;;;8.05;;
21162;SDS011;10739;52.198;20.908;2024-02-21T00:52:17;25.40;;;7.43;;
21162;SDS011;10739;52.198;20.908;2024-02-21T00:54:44;24.30;;;7.32;;
21162;SDS011;10739;52.198;20.908;2024-02-21T00:57:10;29.13;;;6.97;;
21162;SDS011;10739;52.198;20.908;2024-02-21T00:59:37;19.23;;;7.38;;
21162;SDS011;10739;52.198;20.908;2024-02-21T01:02:03;22.85;;;6.60;;
21162;SDS011;10739;52.198;20.908;2024-02-21T01:04:29;21.85;;;6.82;;
21162;SDS011;10739;52.198;20.908;2024-02-21T01:06:55;25.25;;;6.90;;
21162;SDS011;10739;52.198;20.908;2024-02-21T01:09:21;20.08;;;8.02;;
21162;SDS011;10739;52.198;20.908;2024-02-21T01:11:47;19.65;;;7.18;;
21162;SDS011;10739;52.198;20.908;2024-02-21T01:14:13;23.65;;;7.85;;
21162;SDS011;10739;52.198;20.908;2024-02-21T01:16:40;17.65;;;7.70;;
21162;SDS011;10739;52.198;20.908;2024-02-21T01:19:06;22.92;;;7.63;;
21162;SDS011;10739;52.198;20.908;2024-02-21T01:21:32;22.30;;;8.50;;
21162;SDS011;10739;52.198;20.908;2024-02-21T01:23:58;30.17;;;8.18;;
21162;SDS011;10739;52.198;20.908;2024-02-21T01:26:24;21.77;;;8.05;;
21162;SDS011;10739;52.198;20.908;2024-02-21T01:28:50;27.42;;;8.38;;
21162;SDS011;10739;52.198;20.908;2024-02-21T01:31:17;28.10;;;8.70;;
21162;SDS011;10739;52.198;20.908;2024-02-21T01:33:44;24.50;;;8.02;;
21162;SDS011;10739;52.198;20.908;2024-02-21T01:36:17;23.75;;;7.78;;
21162;SDS011;10739;52.198;20.908;2024-02-21T01:38:48;27.55;;;8.35;;
21162;SDS011;10739;52.198;20.908;2024-02-21T01:45:42;25.20;;;8.90;;
21162;SDS011;10739;52.198;20.908;2024-02-21T01:48:08;29.30;;;8.38;;
21162;SDS011;10739;52.198;20.908;2024-02-21T01:50:35;25.60;;;8.30;;
21162;SDS011;10739;52.198;20.908;2024-02-21T01:53:02;23.00;;;8.20;;
21162;SDS011;10739;52.198;20.908;2024-02-21T01:55:31;22.42;;;8.38;;
21162;SDS011;10739;52.198;20.908;2024-02-21T01:58:02;23.40;;;7.85;;
21162;SDS011;10739;52.198;20.908;2024-02-21T02:00:28;24.50;;;9.77;;
21162;SDS011;10739;52.198;20.908;2024-02-21T02:03:02;27.00;;;8.55;;
21162;SDS011;10739;52.198;20.908;2024-02-21T02:05:32;27.67;;;11.38;;
21162;SDS011;10739;52.198;20.908;2024-02-21T02:08:03;27.92;;;9.55;;
21162;SDS011;10739;52.198;20.908;2024-02-21T02:10:31;22.55;;;10.07;;
21162;SDS011;10739;52.198;20.908;2024-02-21T02:12:57;27.30;;;9.80;;
21162;SDS011;10739;52.198;20.908;2024-02-21T02:15:23;26.73;;;10.43;;
21162;SDS011;10739;52.198;20.908;2024-02-21T02:17:49;26.40;;;9.85;;
21162;SDS011;10739;52.198;20.908;2024-02-21T02:20:15;26.92;;;9.15;;
21162;SDS011;10739;52.198;20.908;2024-02-21T02:22:42;25.58;;;9.18;;
21162;SDS011;10739;52.198;20.908;2024-02-21T02:25:12;26.42;;;11.20;;
21162;SDS011;10739;52.198;20.908;2024-02-21T02:27:42;27.35;;;10.05;;
21162;SDS011;10739;52.198;20.908;2024-02-21T02:30:11;25.00;;;9.68;;
21162;SDS011;10739;52.198;20.908;2024-02-21T02:32:38;25.50;;;10.20;;
21162;SDS011;10739;52.198;20.908;2024-02-21T02:35:04;25.98;;;9.90;;
21162;SDS011;10739;52.198;20.908;2024-02-21T02:37:30;27.95;;;10.68;;
21162;SDS011;10739;52.198;20.908;2024-02-21T02:39:57;23.23;;;9.63;;
21162;SDS011;10739;52.198;20.908;2024-02-21T02:42:23;30.23;;;10.98;;
21162;SDS011;10739;52.198;20.908;2024-02-21T02:44:49;25.02;;;9.63;;
21162;SDS011;10739;52.198;20.908;2024-02-21T02:47:16;24.58;;;10.90;;
21162;SDS011;10739;52.198;20.908;2024-02-21T02:49:42;21.65;;;10.05;;
21162;SDS011;10739;52.198;20.908;2024-02-21T02:52:09;28.58;;;10.70;;
21162;SDS011;10739;52.198;20.908;2024-02-21T02:54:35;25.50;;;11.10;;
21162;SDS011;10739;52.198;20.908;2024-02-21T02:57:01;25.85;;;10.85;;
21162;SDS011;10739;52.198;20.908;2024-02-21T02:59:28;28.40;;;10.63;;
21162;SDS011;10739;52.198;20.908;2024-02-21T03:01:55;24.73;;;11.45;;
21162;SDS011;10739;52.198;20.908;2024-02-21T03:04:21;30.50;;;11.75;;
21162;SDS011;10739;52.198;20.908;2024-02-21T03:06:47;37.00;;;11.23;;
21162;SDS011;10739;52.198;20.908;2024-02-21T03:09:13;27.65;;;11.07;;
21162;SDS011;10739;52.198;20.908;2024-02-21T03:11:40;23.50;;;11.45;;
21162;SDS011;10739;52.198;20.908;2024-02-21T03:14:08;30.15;;;11.48;;
21162;SDS011;10739;52.198;20.908;2024-02-21T03:16:34;25.33;;;11.65;;
21162;SDS011;10739;52.198;20.908;2024-02-21T03:19:00;25.70;;;12.25;;
21162;SDS011;10739;52.198;20.908;2024-02-21T03:21:26;28.65;;;13.25;;
21162;SDS011;10739;52.198;20.908;2024-02-21T03:23:53;36.05;;;14.50;;
21162;SDS011;10739;52.198;20.908;2024-02-21T03:26:45;37.50;;;13.75;;
21162;SDS011;10739;52.198;20.908;2024-02-21T03:29:29;28.38;;;12.80;;
21162;SDS011;10739;52.198;20.908;2024-02-21T03:32:00;33.55;;;14.00;;
21162;SDS011;10739;52.198;20.908;2024-02-21T03:34:26;32.30;;;13.48;;
21162;SDS011;10739;52.198;20.908;2024-02-21T03:36:52;31.65;;;14.00;;
21162;SDS011;10739;52.198;20.908;2024-02-21T03:39:18;28.40;;;13.63;;
21162;SDS011;10739;52.198;20.908;2024-02-21T03:41:44;23.80;;;12.57;;
21162;SDS011;10739;52.198;20.908;2024-02-21T03:44:10;39.55;;;13.32;;
21162;SDS011;10739;52.198;20.908;2024-02-21T03:46:36;33.95;;;13.48;;
21162;SDS011;10739;52.198;20.908;2024-02-21T03:49:03;28.25;;;13.93;;
21162;SDS011;10739;52.198;20.908;2024-02-21T03:51:29;37.00;;;13.73;;
21162;SDS011;10739;52.198;20.908;2024-02-21T03:53:55;31.38;;;14.32;;
21162;SDS011;10739;52.198;20.908;2024-02-21T03:56:21;32.38;;;13.57;;
21162;SDS011;10739;52.198;20.908;2024-02-21T03:58:47;23.33;;;13.90;;
21162;SDS011;10739;52.198;20.908;2024-02-21T04:01:15;34.65;;;14.20;;
21162;SDS011;10739;52.198;20.908;2024-02-21T04:03:42;30.63;;;13.60;;
21162;SDS011;10739;52.198;20.908;2024-02-21T04:06:09;26.90;;;13.45;;
21162;SDS011;10739;52.198;20.908;2024-02-21T04:08:36;37.50;;;13.15;;
21162;SDS011;10739;52.198;20.908;2024-02-21T04:11:02;33.25;;;13.68;;
21162;SDS011;10739;52.198;20.908;2024-02-21T04:13:28;30.25;;;13.18;;
21162;SDS011;10739;52.198;20.908;2024-02-21T04:15:54;30.10;;;12.95;;
21162;SDS011;10739;52.198;20.908;2024-02-21T04:18:20;34.90;;;13.07;;
21162;SDS011;10739;52.198;20.908;2024-02-21T04:20:47;27.42;;;13.23;;
21162;SDS011;10739;52.198;20.908;2024-02-21T04:23:13;33.85;;;13.68;;
21162;SDS011;10739;52.198;20.908;2024-02-21T04:25:39;29.95;;;14.20;;
21162;SDS011;10739;52.198;20.908;2024-02-21T04:28:06;46.35;;;14.57;;
21162;SDS011;10739;52.198;20.908;2024-02-21T04:30:32;27.63;;;13.18;;
21162;SDS011;10739;52.198;20.908;2024-02-21T04:32:58;36.42;;;15.10;;
21162;SDS011;10739;52.198;20.908;2024-02-21T04:35:24;38.00;;;15.30;;
21162;SDS011;10739;52.198;20.908;2024-02-21T04:37:50;35.70;;;15.05;;
21162;SDS011;10739;52.198;20.908;2024-02-21T04:40:16;40.58;;;16.25;;
21162;SDS011;10739;52.198;20.908;2024-02-21T04:42:42;36.53;;;15.30;;
21162;SDS011;10739;52.198;20.908;2024-02-21T04:45:09;36.53;;;17.00;;
21162;SDS011;10739;52.198;20.908;2024-02-21T04:47:35;34.95;;;15.93;;
21162;SDS011;10739;52.198;20.908;2024-02-21T04:50:02;41.47;;;18.08;;
21162;SDS011;10739;52.198;20.908;2024-02-21T04:52:28;34.28;;;18.05;;
21162;SDS011;10739;52.198;20.908;2024-02-21T04:54:55;41.95;;;19.10;;
21162;SDS011;10739;52.198;20.908;2024-02-21T04:57:21;40.80;;;18.88;;
21162;SDS011;10739;52.198;20.908;2024-02-21T04:59:47;42.85;;;19.17;;
21162;SDS011;10739;52.198;20.908;2024-02-21T05:02:13;46.22;;;21.25;;
21162;SDS011;10739;52.198;20.908;2024-02-21T05:04:39;55.33;;;23.27;;
21162;SDS011;10739;52.198;20.908;2024-02-21T05:07:07;46.58;;;24.20;;
21162;SDS011;10739;52.198;20.908;2024-02-21T05:09:33;45.88;;;22.52;;
21162;SDS011;10739;52.198;20.908;2024-02-21T05:11:59;46.90;;;20.55;;
21162;SDS011;10739;52.198;20.908;2024-02-21T05:14:26;42.67;;;19.92;;
21162;SDS011;10739;52.198;20.908;2024-02-21T05:16:52;35.80;;;17.95;;
21162;SDS011;10739;52.198;20.908;2024-02-21T05:19:18;37.55;;;17.52;;
21162;SDS011;10739;52.198;20.908;2024-02-21T05:21:45;30.45;;;16.10;;
21162;SDS011;10739;52.198;20.908;2024-02-21T05:24:11;40.17;;;17.77;;
21162;SDS011;10739;52.198;20.908;2024-02-21T05:26:37;28.80;;;15.88;;
21162;SDS011;10739;52.198;20.908;2024-02-21T05:29:04;45.47;;;17.77;;
21162;SDS011;10739;52.198;20.908;2024-02-21T05:34:18;35.28;;;16.30;;
21162;SDS011;10739;52.198;20.908;2024-02-21T05:36:45;35.83;;;17.13;;
21162;SDS011;10739;52.198;20.908;2024-02-21T05:39:11;37.75;;;15.98;;
21162;SDS011;10739;52.198;20.908;2024-02-21T05:41:39;34.35;;;17.08;;
21162;SDS011;10739;52.198;20.908;2024-02-21T05:44:05;39.78;;;17.38;;
21162;SDS011;10739;52.198;20.908;2024-02-21T05:46:31;37.42;;;17.60;;
21162;SDS011;10739;52.198;20.908;2024-02-21T05:48:57;38.53;;;17.35;;
21162;SDS011;10739;52.198;20.908;2024-02-21T05:51:23;32.92;;;16.30;;
21162;SDS011;10739;52.198;20.908;2024-02-21T05:53:49;31.90;;;17.55;;
21162;SDS011;10739;52.198;20.908;2024-02-21T05:56:16;39.47;;;17.95;;
21162;SDS011;10739;52.198;20.908;2024-02-21T05:58:43;38.20;;;17.38;;
21162;SDS011;10739;52.198;20.908;2024-02-21T06:01:09;32.38;;;16.60;;
21162;SDS011;10739;52.198;20.908;2024-02-21T06:03:36;30.67;;;16.98;;
21162;SDS011;10739;52.198;20.908;2024-02-21T06:06:02;39.38;;;18.48;;
21162;SDS011;10739;52.198;20.908;2024-02-21T06:08:30;33.47;;;18.25;;
21162;SDS011;10739;52.198;20.908;2024-02-21T06:10:56;42.42;;;18.63;;
21162;SDS011;10739;52.198;20.908;2024-02-21T06:13:25;40.08;;;18.80;;
21162;SDS011;10739;52.198;20.908;2024-02-21T06:15:53;35.70;;;19.88;;
21162;SDS011;10739;52.198;20.908;2024-02-21T06:18:19;44.67;;;19.00;;
21162;SDS011;10739;52.198;20.908;2024-02-21T06:20:46;41.22;;;19.27;;
21162;SDS011;10739;52.198;20.908;2024-02-21T06:23:12;47.45;;;20.98;;
21162;SDS011;10739;52.198;20.908;2024-02-21T06:25:41;40.10;;;20.13;;
21162;SDS011;10739;52.198;20.908;2024-02-21T06:28:08;41.15;;;20.45;;
21162;SDS011;10739;52.198;20.908;2024-02-21T06:30:35;38.88;;;20.35;;
21162;SDS011;10739;52.198;20.908;2024-02-21T06:33:01;48.03;;;22.55;;
21162;SDS011;10739;52.198;20.908;2024-02-21T06:35:28;36.40;;;19.55;;
21162;SDS011;10739;52.198;20.908;2024-02-21T06:37:55;39.15;;;20.60;;
21162;SDS011;10739;52.198;20.908;2024-02-21T06:40:21;45.03;;;20.52;;
21162;SDS011;10739;52.198;20.908;2024-02-21T06:42:48;56.95;;;21.30;;
21162;SDS011;10739;52.198;20.908;2024-02-21T06:45:16;51.15;;;20.90;;
21162;SDS011;10739;52.198;20.908;2024-02-21T06:47:42;44.90;;;21.23;;
21162;SDS011;10739;52.198;20.908;2024-02-21T06:50:09;47.22;;;18.88;;
21162;SDS011;10739;52.198;20.908;2024-02-21T06:52:38;44.00;;;20.02;;
21162;SDS011;10739;52.198;20.908;2024-02-21T06:55:04;43.95;;;20.25;;
21162;SDS011;10739;52.198;20.908;2024-02-21T06:57:31;47.88;;;22.15;;
21162;SDS011;10739;52.198;20.908;2024-02-21T06:59:57;47.10;;;20.83;;
21162;SDS011;10739;52.198;20.908;2024-02-21T07:02:23;43.85;;;18.90;;
21162;SDS011;10739;52.198;20.908;2024-02-21T07:04:49;48.55;;;20.23;;
21162;SDS011;10739;52.198;20.908;2024-02-21T07:07:15;42.47;;;18.10;;
21162;SDS011;10739;52.198;20.908;2024-02-21T07:09:41;43.58;;;19.15;;
21162;SDS011;10739;52.198;20.908;2024-02-21T07:12:07;40.15;;;18.95;;
21162;SDS011;10739;52.198;20.908;2024-02-21T07:14:33;49.45;;;19.30;;
21162;SDS011;10739;52.198;20.908;2024-02-21T07:17:01;41.05;;;19.77;;
21162;SDS011;10739;52.198;20.908;2024-02-21T07:19:28;46.72;;;20.45;;
21162;SDS011;10739;52.198;20.908;2024-02-21T07:21:55;44.60;;;18.83;;
21162;SDS011;10739;52.198;20.908;2024-02-21T07:24:21;44.30;;;20.08;;
21162;SDS011;10739;52.198;20.908;2024-02-21T07:26:48;48.88;;;20.83;;
21162;SDS011;10739;52.198;20.908;2024-02-21T07:29:14;43.25;;;19.90;;
21162;SDS011;10739;52.198;20.908;2024-02-21T07:31:43;52.08;;;22.25;;
21162;SDS011;10739;52.198;20.908;2024-02-21T07:34:10;45.55;;;19.98;;
21162;SDS011;10739;52.198;20.908;2024-02-21T07:36:37;43.58;;;19.27;;
21162;SDS011;10739;52.198;20.908;2024-02-21T07:39:08;44.17;;;19.48;;
21162;SDS011;10739;52.198;20.908;2024-02-21T07:41:37;45.13;;;20.30;;
21162;SDS011;10739;52.198;20.908;2024-02-21T07:44:04;45.05;;;20.13;;
21162;SDS011;10739;52.198;20.908;2024-02-21T07:46:30;46.92;;;19.92;;
21162;SDS011;10739;52.198;20.908;2024-02-21T07:48:56;41.25;;;19.52;;
21162;SDS011;10739;52.198;20.908;2024-02-21T07:51:22;46.97;;;20.10;;
21162;SDS011;10739;52.198;20.908;2024-02-21T07:53:53;45.85;;;19.80;;
21162;SDS011;10739;52.198;20.908;2024-02-21T07:56:21;42.42;;;20.25;;
21162;SDS011;10739;52.198;20.908;2024-02-21T07:58:47;41.70;;;19.05;;
21162;SDS011;10739;52.198;20.908;2024-02-21T08:04:09;45.95;;;18.52;;
21162;SDS011;10739;52.198;20.908;2024-02-21T08:06:43;46.15;;;19.55;;
21162;SDS011;10739;52.198;20.908;2024-02-21T08:09:11;49.65;;;20.73;;
21162;SDS011;10739;52.198;20.908;2024-02-21T08:11:41;55.60;;;21.15;;
21162;SDS011;10739;52.198;20.908;2024-02-21T08:14:08;43.70;;;19.50;;
21162;SDS011;10739;52.198;20.908;2024-02-21T08:16:34;48.80;;;20.85;;
21162;SDS011;10739;52.198;20.908;2024-02-21T08:19:00;49.65;;;21.00;;
21162;SDS011;10739;52.198;20.908;2024-02-21T08:21:28;59.85;;;21.80;;
21162;SDS011;10739;52.198;20.908;2024-02-21T08:23:54;41.33;;;20.23;;
21162;SDS011;10739;52.198;20.908;2024-02-21T08:26:21;51.50;;;20.35;;
21162;SDS011;10739;52.198;20.908;2024-02-21T08:28:46;51.13;;;21.70;;
21162;SDS011;10739;52.198;20.908;2024-02-21T08:31:18;47.88;;;19.55;;
21162;SDS011;10739;52.198;20.908;2024-02-21T08:33:45;52.47;;;21.58;;
21162;SDS011;10739;52.198;20.908;2024-02-21T08:36:20;54.08;;;21.75;;
21162;SDS011;10739;52.198;20.908;2024-02-21T08:38:46;46.67;;;19.63;;
21162;SDS011;10739;52.198;20.908;2024-02-21T08:41:12;48.65;;;19.65;;
21162;SDS011;10739;52.198;20.908;2024-02-21T08:43:39;45.88;;;21.10;;
21162;SDS011;10739;52.198;20.908;2024-02-21T08:46:05;45.53;;;20.50;;
21162;SDS011;10739;52.198;20.908;2024-02-21T08:48:31;39.67;;;18.35;;
21162;SDS011;10739;52.198;20.908;2024-02-21T08:50:58;45.88;;;19.92;;
21162;SDS011;10739;52.198;20.908;2024-02-21T08:53:24;44.88;;;20.27;;
21162;SDS011;10739;52.198;20.908;2024-02-21T08:55:50;53.80;;;20.63;;
21162;SDS011;10739;52.198;20.908;2024-02-21T08:58:16;40.17;;;19.08;;
21162;SDS011;10739;52.198;20.908;2024-02-21T09:00:42;38.55;;;16.85;;
21162;SDS011;10739;52.198;20.908;2024-02-21T09:03:08;47.40;;;17.80;;
21162;SDS011;10739;52.198;20.908;2024-02-21T09:05:35;46.95;;;18.33;;
21162;SDS011;10739;52.198;20.908;2024-02-21T09:08:01;38.08;;;16.00;;
21162;SDS011;10739;52.198;20.908;2024-02-21T09:10:27;37.58;;;18.30;;
21162;SDS011;10739;52.198;20.908;2024-02-21T09:12:53;45.83;;;18.02;;
21162;SDS011;10739;52.198;20.908;2024-02-21T09:15:20;36.00;;;16.70;;
21162;SDS011;10739;52.198;20.908;2024-02-21T09:17:46;34.05;;;17.65;;
21162;SDS011;10739;52.198;20.908;2024-02-21T09:20:12;42.22;;;16.52;;
21162;SDS011;10739;52.198;20.908;2024-02-21T09:22:41;39.05;;;16.85;;
21162;SDS011;10739;52.198;20.908;2024-02-21T09:25:07;39.08;;;16.02;;
21162;SDS011;10739;52.198;20.908;2024-02-21T09:27:35;44.03;;;16.95;;
21162;SDS011;10739;52.198;20.908;2024-02-21T09:30:01;41.38;;;16.10;;
21162;SDS011;10739;52.198;20.908;2024-02-21T09:32:30;41.95;;;16.83;;
21162;SDS011;10739;52.198;20.908;2024-02-21T09:34:57;35.63;;;16.17;;
21162;SDS011;10739;52.198;20.908;2024-02-21T09:37:24;33.35;;;14.55;;
21162;SDS011;10739;52.198;20.908;2024-02-21T09:39:50;41.80;;;15.30;;
21162;SDS011;10739;52.198;20.908;2024-02-21T09:42:19;35.58;;;15.60;;
21162;SDS011;10739;52.198;20.908;2024-02-21T09:44:47;40.05;;;14.40;;
21162;SDS011;10739;52.198;20.908;2024-02-21T09:47:19;31.80;;;11.95;;
21162;SDS011;10739;52.198;20.908;2024-02-21T09:49:56;33.97;;;13.15;;
21162;SDS011;10739;52.198;20.908;2024-02-21T09:52:25;28.90;;;11.07;;
21162;SDS011;10739;52.198;20.908;2024-02-21T09:54:52;26.67;;;11.77;;
21162;SDS011;10739;52.198;20.908;2024-02-21T09:57:19;23.70;;;9.30;;
21162;SDS011;10739;52.198;20.908;2024-02-21T09:59:48;25.15;;;9.90;;
21162;SDS011;10739;52.198;20.908;2024-02-21T10:02:15;23.15;;;10.05;;
21162;SDS011;10739;52.198;20.908;2024-02-21T10:04:42;23.73;;;9.00;;
21162;SDS011;10739;52.198;20.908;2024-02-21T10:07:08;36.60;;;11.38;;
21162;SDS011;10739;52.198;20.908;2024-02-21T10:09:34;30.60;;;9.65;;
21162;SDS011;10739;52.198;20.908;2024-02-21T10:12:10;26.27;;;9.88;;
21162;SDS011;10739;52.198;20.908;2024-02-21T10:14:38;32.00;;;9.93;;
21162;SDS011;10739;52.198;20.908;2024-02-21T10:17:04;25.65;;;9.73;;
21162;SDS011;10739;52.198;20.908;2024-02-21T10:19:34;28.75;;;10.23;;
21162;SDS011;10739;52.198;20.908;2024-02-21T10:22:05;34.40;;;9.90;;
21162;SDS011;10739;52.198;20.908;2024-02-21T10:24:34;28.13;;;10.35;;
21162;SDS011;10739;52.198;20.908;2024-02-21T10:27:06;34.53;;;10.07;;
21162;SDS011;10739;52.198;20.908;2024-02-21T10:29:36;26.38;;;9.70;;
21162;SDS011;10739;52.198;20.908;2024-02-21T10:32:06;31.27;;;10.02;;
21162;SDS011;10739;52.198;20.908;2024-02-21T10:34:40;28.20;;;10.10;;
21162;SDS011;10739;52.198;20.908;2024-02-21T10:37:08;25.60;;;9.70;;
21162;SDS011;10739;52.198;20.908;2024-02-21T10:39:37;28.58;;;10.52;;
21162;SDS011;10739;52.198;20.908;2024-02-21T10:42:05;30.80;;;10.90;;
21162;SDS011;10739;52.198;20.908;2024-02-21T10:44:33;35.08;;;12.13;;
21162;SDS011;10739;52.198;20.908;2024-02-21T10:47:05;28.88;;;11.27;;
21162;SDS011;10739;52.198;20.908;2024-02-21T10:49:38;33.70;;;13.73;;
21162;SDS011;10739;52.198;20.908;2024-02-21T10:52:11;32.55;;;12.43;;
21162;SDS011;10739;52.198;20.908;2024-02-21T10:55:16;33.72;;;12.63;;
21162;SDS011;10739;52.198;20.908;2024-02-21T10:57:52;31.80;;;13.43;;
21162;SDS011;10739;52.198;20.908;2024-02-21T11:00:19;24.15;;;12.40;;
21162;SDS011;10739;52.198;20.908;2024-02-21T11:02:46;24.77;;;12.25;;
21162;SDS011;10739;52.198;20.908;2024-02-21T11:05:14;31.92;;;13.63;;
21162;SDS011;10739;52.198;20.908;2024-02-21T11:07:42;31.50;;;12.88;;
21162;SDS011;10739;52.198;20.908;2024-02-21T11:10:24;33.85;;;14.02;;
21162;SDS011;10739;52.198;20.908;2024-02-21T11:12:52;32.47;;;13.82;;
21162;SDS011;10739;52.198;20.908;2024-02-21T11:15:34;33.58;;;14.90;;
21162;SDS011;10739;52.198;20.908;2024-02-21T11:18:01;32.67;;;14.32;;
21162;SDS011;10739;52.198;20.908;2024-02-21T11:20:34;37.47;;;15.15;;
21162;SDS011;10739;52.198;20.908;2024-02-21T11:23:01;36.40;;;14.93;;
21162;SDS011;10739;52.198;20.908;2024-02-21T11:25:28;34.35;;;15.13;;
21162;SDS011;10739;52.198;20.908;2024-02-21T11:28:02;29.50;;;15.07;;
21162;SDS011;10739;52.198;20.908;2024-02-21T11:30:30;31.10;;;15.18;;
21162;SDS011;10739;52.198;20.908;2024-02-21T11:32:59;45.50;;;16.80;;
21162;SDS011;10739;52.198;20.908;2024-02-21T11:38:08;39.00;;;16.48;;
21162;SDS011;10739;52.198;20.908;2024-02-21T11:40:45;40.50;;;16.38;;
21162;SDS011;10739;52.198;20.908;2024-02-21T11:43:12;39.38;;;18.58;;
21162;SDS011;10739;52.198;20.908;2024-02-21T11:45:38;42.63;;;18.98;;
21162;SDS011;10739;52.198;20.908;2024-02-21T11:48:05;40.08;;;17.95;;
21162;SDS011;10739;52.198;20.908;2024-02-21T11:50:34;59.65;;;18.38;;
21162;SDS011;10739;52.198;20.908;2024-02-21T11:53:01;40.47;;;19.10;;
21162;SDS011;10739;52.198;20.908;2024-02-21T11:55:28;37.22;;;18.75;;
21162;SDS011;10739;52.198;20.908;2024-02-21T11:57:54;36.75;;;18.30;;
21162;SDS011;10739;52.198;20.908;2024-02-21T12:00:20;40.08;;;19.30;;
21162;SDS011;10739;52.198;20.908;2024-02-21T12:02:47;39.80;;;18.50;;
21162;SDS011;10739;52.198;20.908;2024-02-21T12:05:15;38.50;;;19.08;;
21162;SDS011;10739;52.198;20.908;2024-02-21T12:07:42;44.13;;;18.05;;
21162;SDS011;10739;52.198;20.908;2024-02-21T12:10:12;46.38;;;19.73;;
21162;SDS011;10739;52.198;20.908;2024-02-21T12:12:39;47.08;;;21.48;;
21162;SDS011;10739;52.198;20.908;2024-02-21T12:15:06;40.22;;;20.13;;
21162;SDS011;10739;52.198;20.908;2024-02-21T12:17:34;39.67;;;19.73;;
21162;SDS011;10739;52.198;20.908;2024-02-21T12:20:02;40.38;;;19.98;;
21162;SDS011;10739;52.198;20.908;2024-02-21T12:22:36;50.20;;;22.45;;
21162;SDS011;10739;52.198;20.908;2024-02-21T12:25:03;45.30;;;20.45;;
21162;SDS011;10739;52.198;20.908;2024-02-21T12:27:47;44.95;;;20.92;;
21162;SDS011;10739;52.198;20.908;2024-02-21T12:30:14;44.92;;;20.70;;
21162;SDS011;10739;52.198;20.908;2024-02-21T12:32:41;50.95;;;20.83;;
21162;SDS011;10739;52.198;20.908;2024-02-21T12:35:08;37.55;;;21.13;;
21162;SDS011;10739;52.198;20.908;2024-02-21T12:37:34;44.63;;;20.23;;
21162;SDS011;10739;52.198;20.908;2024-02-21T12:40:01;52.78;;;22.33;;
21162;SDS011;10739;52.198;20.908;2024-02-21T12:42:32;54.28;;;22.05;;
21162;SDS011;10739;52.198;20.908;2024-02-21T12:44:59;41.83;;;21.30;;
21162;SDS011;10739;52.198;20.908;2024-02-21T12:47:28;40.92;;;20.67;;
21162;SDS011;10739;52.198;20.908;2024-02-21T12:49:54;45.65;;;24.02;;
21162;SDS011;10739;52.198;20.908;2024-02-21T12:52:21;47.05;;;22.70;;
21162;SDS011;10739;52.198;20.908;2024-02-21T12:54:47;50.08;;;22.30;;
21162;SDS011;10739;52.198;20.908;2024-02-21T12:57:14;47.20;;;21.25;;
21162;SDS011;10739;52.198;20.908;2024-02-21T12:59:40;43.40;;;20.80;;
21162;SDS011;10739;52.198;20.908;2024-02-21T13:02:06;55.90;;;22.23;;
21162;SDS011;10739;52.198;20.908;2024-02-21T13:04:33;44.47;;;21.67;;
21162;SDS011;10739;52.198;20.908;2024-02-21T13:07:00;36.50;;;20.40;;
21162;SDS011;10739;52.198;20.908;2024-02-21T13:09:26;42.80;;;19.15;;
21162;SDS011;10739;52.198;20.908;2024-02-21T13:11:52;39.83;;;20.45;;
21162;SDS011;10739;52.198;20.908;2024-02-21T13:14:18;46.38;;;21.08;;
21162;SDS011;10739;52.198;20.908;2024-02-21T13:16:45;48.92;;;21.10;;
21162;SDS011;10739;52.198;20.908;2024-02-21T13:19:11;41.30;;;19.88;;
21162;SDS011;10739;52.198;20.908;2024-02-21T13:21:38;35.88;;;18.73;;
21162;SDS011;10739;52.198;20.908;2024-02-21T13:24:05;45.17;;;20.17;;
21162;SDS011;10739;52.198;20.908;2024-02-21T13:26:32;52.58;;;21.27;;
21162;SDS011;10739;52.198;20.908;2024-02-21T13:28:58;47.13;;;20.35;;
21162;SDS011;10739;52.198;20.908;2024-02-21T13:31:24;43.92;;;19.10;;
21162;SDS011;10739;52.198;20.908;2024-02-21T13:33:50;45.67;;;19.42;;
21162;SDS011;10739;52.198;20.908;2024-02-21T13:36:19;40.47;;;17.95;;
21162;SDS011;10739;52.198;20.908;2024-02-21T13:38:45;39.05;;;18.70;;
21162;SDS011;10739;52.198;20.908;2024-02-21T13:41:12;42.97;;;19.85;;
21162;SDS011;10739;52.198;20.908;2024-02-21T13:43:38;38.10;;;19.17;;
21162;SDS011;10739;52.198;20.908;2024-02-21T13:46:04;49.55;;;19.60;;
21162;SDS011;10739;52.198;20.908;2024-02-21T13:48:35;38.50;;;18.58;;
21162;SDS011;10739;52.198;20.908;2024-02-21T13:51:01;38.97;;;19.75;;
21162;SDS011;10739;52.198;20.908;2024-02-21T13:53:37;40.42;;;19.55;;
21162;SDS011;10739;52.198;20.908;2024-02-21T13:56:03;46.08;;;19.08;;
21162;SDS011;10739;52.198;20.908;2024-02-21T13:58:29;40.17;;;19.50;;
21162;SDS011;10739;52.198;20.908;2024-02-21T14:00:56;40.78;;;19.83;;
21162;SDS011;10739;52.198;20.908;2024-02-21T14:03:22;40.75;;;19.38;;
21162;SDS011;10739;52.198;20.908;2024-02-21T14:05:48;37.60;;;17.98;;
21162;SDS011;10739;52.198;20.908;2024-02-21T14:08:14;40.83;;;16.70;;
21162;SDS011;10739;52.198;20.908;2024-02-21T14:10:41;41.63;;;16.98;;
21162;SDS011;10739;52.198;20.908;2024-02-21T14:13:07;35.13;;;16.98;;
21162;SDS011;10739;52.198;20.908;2024-02-21T14:15:33;39.45;;;18.35;;
21162;SDS011;10739;52.198;20.908;2024-02-21T14:17:59;34.10;;;15.60;;
21162;SDS011;10739;52.198;20.908;2024-02-21T14:20:25;34.20;;;16.38;;
21162;SDS011;10739;52.198;20.908;2024-02-21T14:22:53;36.65;;;16.58;;
21162;SDS011;10739;52.198;20.908;2024-02-21T14:25:21;35.28;;;16.55;;